createdAt,value
2018-06-20T00:00:15.405Z,58.87
2018-06-20T00:02:43.036Z,59.45
2018-06-20T00:05:10.575Z,59.81
2018-06-20T00:07:38.149Z,59.30
2018-06-20T00:10:05.733Z,59.11
2018-06-20T00:12:33.536Z,58.41
2018-06-20T00:15:01.160Z,58.66
2018-06-20T00:17:28.694Z,59.21
2018-06-20T00:19:56.267Z,58.51
2018-06-20T00:22:23.950Z,59.49
2018-06-20T00:24:51.509Z,59.03
2018-06-20T00:27:19.081Z,58.52
2018-06-20T00:29:47.142Z,58.69
2018-06-20T00:32:14.735Z,58.88
2018-06-20T00:34:42.330Z,59.64
2018-06-20T00:37:09.925Z,59.40
2018-06-20T00:39:37.511Z,58.98
2018-06-20T00:42:05.339Z,59.22
2018-06-20T00:44:32.916Z,59.64
2018-06-20T00:47:00.469Z,59.55
2018-06-20T00:49:28.031Z,59.41
2018-06-20T00:51:55.681Z,59.77
2018-06-20T00:54:23.215Z,58.96
2018-06-20T00:56:50.767Z,59.31
2018-06-20T00:59:18.304Z,59.16
2018-06-20T01:01:45.940Z,58.69
2018-06-20T01:04:13.528Z,59.24
2018-06-20T01:06:41.116Z,59.90
2018-06-20T01:09:09.659Z,59.24
2018-06-20T01:11:37.947Z,59.52
2018-06-20T01:14:05.587Z,59.25
2018-06-20T01:16:33.138Z,58.59
2018-06-20T01:19:00.695Z,59.19
2018-06-20T01:21:28.226Z,59.19
2018-06-20T01:23:55.752Z,58.92
2018-06-20T01:26:23.354Z,58.78
2018-06-20T01:28:50.938Z,58.29
2018-06-20T01:31:18.491Z,58.75
2018-06-20T01:33:46.066Z,58.34
2018-06-20T01:36:13.656Z,58.43
2018-06-20T01:38:41.218Z,58.33
2018-06-20T01:41:08.792Z,58.99
2018-06-20T01:43:36.351Z,58.62
2018-06-20T01:46:03.914Z,58.35
2018-06-20T01:48:31.451Z,58.44
2018-06-20T01:50:59.088Z,58.66
2018-06-20T01:53:26.701Z,58.45
2018-06-20T01:55:54.241Z,58.87
2018-06-20T01:58:22.501Z,58.78
2018-06-20T02:00:50.043Z,58.48
2018-06-20T02:03:17.641Z,58.85
2018-06-20T02:05:45.977Z,58.45
2018-06-20T02:08:13.533Z,58.75
2018-06-20T02:10:41.087Z,59.30
2018-06-20T02:13:08.627Z,58.17
2018-06-20T02:15:36.165Z,59.17
2018-06-20T02:18:03.730Z,58.39
2018-06-20T02:20:31.263Z,58.46
2018-06-20T02:22:58.806Z,58.89
2018-06-20T02:25:26.386Z,59.12
2018-06-20T02:27:53.966Z,59.08
2018-06-20T02:30:21.518Z,58.76
2018-06-20T02:32:49.099Z,59.07
2018-06-20T02:35:16.622Z,58.79
2018-06-20T02:37:44.183Z,59.64
2018-06-20T02:40:11.936Z,59.38
2018-06-20T02:42:39.459Z,59.18
2018-06-20T02:45:07.878Z,58.98
2018-06-20T02:47:41.382Z,58.78
2018-06-20T02:50:10.266Z,59.82
2018-06-20T02:52:38.090Z,59.75
2018-06-20T02:55:05.651Z,59.21
2018-06-20T02:57:33.193Z,59.21
2018-06-20T03:00:01.044Z,59.64
2018-06-20T03:02:28.641Z,59.54
2018-06-20T03:04:56.166Z,59.49
2018-06-20T03:07:23.762Z,59.09
2018-06-20T03:09:51.381Z,59.23
2018-06-20T03:12:18.970Z,58.71
2018-06-20T03:14:46.527Z,59.36
2018-06-20T03:17:14.087Z,59.77
2018-06-20T03:19:41.646Z,59.46
2018-06-20T03:22:09.169Z,58.73
2018-06-20T03:24:36.722Z,59.68
2018-06-20T03:27:04.349Z,60.45
2018-06-20T03:29:31.881Z,60.07
2018-06-20T03:31:59.428Z,60.29
2018-06-20T03:34:26.993Z,59.56
2018-06-20T03:36:54.708Z,60.11
2018-06-20T03:39:22.320Z,59.13
2018-06-20T03:41:49.859Z,58.71
2018-06-20T03:44:17.456Z,57.20
2018-06-20T03:46:45.021Z,58.61
2018-06-20T03:49:12.645Z,58.61
2018-06-20T03:51:40.236Z,58.86
2018-06-20T03:54:07.814Z,58.72
2018-06-20T03:56:35.403Z,59.04
2018-06-20T03:59:03.086Z,57.80
2018-06-20T04:01:30.668Z,57.79
2018-06-20T04:03:58.257Z,58.23
2018-06-20T04:06:25.840Z,57.79
2018-06-20T04:08:53.439Z,56.63
2018-06-20T04:11:21.077Z,58.00
2018-06-20T04:13:48.970Z,57.94
2018-06-20T04:16:16.523Z,58.39
2018-06-20T04:18:44.499Z,58.75
2018-06-20T04:21:13.149Z,57.38
2018-06-20T04:23:40.747Z,56.43
2018-06-20T04:26:09.525Z,56.17
2018-06-20T04:28:37.325Z,54.76
2018-06-20T04:31:05.643Z,55.20
2018-06-20T04:33:34.047Z,55.46
2018-06-20T04:36:01.644Z,55.47
2018-06-20T04:38:29.286Z,56.41
2018-06-20T04:40:57.443Z,55.68
2018-06-20T04:43:25.199Z,55.68
2018-06-20T04:45:52.750Z,55.17
2018-06-20T04:48:20.353Z,54.87
2018-06-20T04:50:47.926Z,54.74
2018-06-20T04:53:15.983Z,54.10
2018-06-20T04:55:43.654Z,53.63
2018-06-20T04:58:11.307Z,53.98
2018-06-20T05:00:38.968Z,53.29
2018-06-20T05:03:06.510Z,52.51
2018-06-20T05:05:34.058Z,52.96
2018-06-20T05:08:01.660Z,52.82
2018-06-20T05:10:29.192Z,52.83
2018-06-20T05:12:56.757Z,53.85
2018-06-20T05:15:24.658Z,53.13
2018-06-20T05:17:52.276Z,52.68
2018-06-20T05:20:19.908Z,52.63
2018-06-20T05:22:47.427Z,52.13
2018-06-20T05:25:14.996Z,51.21
2018-06-20T05:27:42.640Z,50.68
2018-06-20T05:30:10.191Z,51.48
2018-06-20T05:32:37.743Z,52.12
2018-06-20T05:35:05.361Z,52.03
2018-06-20T05:37:32.934Z,52.35
2018-06-20T05:40:00.622Z,50.60
2018-06-20T05:42:28.179Z,50.83
2018-06-20T05:44:55.760Z,51.15
2018-06-20T05:47:23.338Z,50.42
2018-06-20T05:49:50.891Z,49.93
2018-06-20T05:52:18.490Z,50.11
2018-06-20T05:54:46.074Z,49.67
2018-06-20T05:57:13.676Z,48.76
2018-06-20T05:59:41.293Z,49.60
2018-06-20T06:02:08.897Z,49.22
2018-06-20T06:04:36.581Z,49.49
2018-06-20T06:07:04.788Z,48.13
2018-06-20T06:09:32.501Z,47.78
2018-06-20T06:12:00.176Z,48.30
2018-06-20T06:14:27.809Z,47.90
2018-06-20T06:16:56.005Z,47.24
2018-06-20T06:19:23.569Z,47.94
2018-06-20T06:21:51.165Z,47.73
2018-06-20T06:24:18.709Z,48.41
2018-06-20T06:26:46.249Z,48.83
2018-06-20T06:29:13.801Z,49.95
2018-06-20T06:31:41.463Z,50.05
2018-06-20T06:34:09.147Z,47.70
2018-06-20T06:36:36.736Z,46.36
2018-06-20T06:39:11.334Z,45.77
2018-06-20T06:41:39.157Z,43.90
2018-06-20T06:44:06.868Z,43.61
2018-06-20T06:46:34.684Z,42.43
2018-06-20T06:49:02.436Z,42.81
2018-06-20T06:51:30.210Z,40.95
2018-06-20T06:53:57.773Z,42.08
2018-06-20T06:56:26.741Z,42.16
2018-06-20T06:58:54.253Z,42.08
2018-06-20T07:01:22.871Z,41.68
2018-06-20T07:03:50.386Z,41.92
2018-06-20T07:06:17.927Z,40.96
2018-06-20T07:08:45.491Z,40.32
2018-06-20T07:11:13.047Z,40.43
2018-06-20T07:13:40.718Z,40.23
2018-06-20T07:16:08.297Z,40.46
2018-06-20T07:18:35.909Z,41.01
2018-06-20T07:21:03.506Z,40.23
2018-06-20T07:23:31.046Z,40.91
2018-06-20T07:25:58.682Z,39.45
2018-06-20T07:28:26.226Z,39.71
2018-06-20T07:30:53.786Z,38.45
2018-06-20T07:33:21.308Z,39.59
2018-06-20T07:35:48.823Z,39.56
2018-06-20T07:38:16.354Z,39.26
2018-06-20T07:40:43.893Z,39.11
2018-06-20T07:43:11.471Z,38.17
2018-06-20T07:45:39.015Z,38.95
2018-06-20T07:48:06.567Z,38.87
2018-06-20T07:50:34.085Z,39.34
2018-06-20T07:53:01.769Z,38.90
2018-06-20T07:55:29.291Z,37.36
2018-06-20T07:57:56.855Z,37.28
2018-06-20T08:00:30.303Z,37.69
2018-06-20T08:03:16.454Z,37.03
2018-06-20T08:05:50.212Z,36.87
2018-06-20T08:08:23.826Z,37.62
2018-06-20T08:10:57.208Z,38.07
2018-06-20T08:13:30.754Z,37.96
2018-06-20T08:16:04.087Z,36.16
2018-06-20T08:18:37.411Z,34.86
2018-06-20T08:21:05.239Z,34.75
2018-06-20T08:23:32.773Z,34.39
2018-06-20T08:26:00.576Z,35.11
2018-06-20T08:28:28.335Z,36.42
2018-06-20T08:30:55.879Z,36.58
2018-06-20T08:33:23.674Z,35.44
2018-06-20T08:35:51.238Z,36.74
2018-06-20T08:38:18.758Z,36.89
2018-06-20T08:40:46.441Z,37.40
2018-06-20T08:43:13.995Z,37.09
2018-06-20T08:45:41.527Z,37.81
2018-06-20T08:48:09.054Z,37.51
2018-06-20T08:50:36.613Z,38.69
2018-06-20T08:53:04.245Z,39.34
2018-06-20T08:55:31.782Z,38.86
2018-06-20T08:57:59.311Z,39.11
2018-06-20T09:00:32.674Z,39.22
2018-06-20T09:03:00.196Z,39.36
2018-06-20T09:05:33.548Z,37.61
2018-06-20T09:08:06.926Z,37.12
2018-06-20T09:10:40.259Z,37.32
2018-06-20T09:13:13.505Z,37.90
2018-06-20T09:15:46.798Z,37.90
2018-06-20T09:18:20.314Z,38.73
2018-06-20T09:20:47.914Z,37.10
2018-06-20T09:23:15.435Z,36.56
2018-06-20T09:25:43.170Z,35.77
2018-06-20T09:28:10.695Z,35.25
2018-06-20T09:30:38.396Z,34.92
2018-06-20T09:33:05.948Z,34.39
2018-06-20T09:35:33.718Z,34.43
2018-06-20T09:38:01.262Z,33.69
2018-06-20T09:40:28.983Z,35.77
2018-06-20T09:42:56.509Z,34.73
2018-06-20T09:45:24.274Z,33.82
2018-06-20T09:47:51.801Z,32.06
2018-06-20T09:50:25.132Z,32.57
2018-06-20T09:52:52.793Z,30.94
2018-06-20T09:55:20.468Z,31.67
2018-06-20T09:57:48.048Z,31.66
2018-06-20T10:00:21.463Z,33.17
2018-06-20T10:02:54.789Z,34.53
2018-06-20T10:05:28.015Z,35.69
2018-06-20T10:08:01.303Z,36.15
2018-06-20T10:10:34.593Z,36.74
2018-06-20T10:13:07.865Z,36.59
2018-06-20T10:15:36.149Z,35.14
2018-06-20T10:18:03.930Z,32.82
2018-06-20T10:20:31.520Z,32.52
2018-06-20T10:22:59.862Z,31.46
2018-06-20T10:25:28.162Z,31.65
2018-06-20T10:27:56.110Z,32.02
2018-06-20T10:30:24.076Z,32.59
2018-06-20T10:32:51.851Z,31.65
2018-06-20T10:35:19.702Z,32.30
2018-06-20T10:37:47.470Z,32.25
2018-06-20T10:40:15.155Z,30.96
2018-06-20T10:42:42.741Z,31.15
2018-06-20T10:46:20.126Z,31.01
2018-06-20T10:48:47.672Z,30.91
2018-06-20T10:51:15.295Z,31.34
2018-06-20T10:53:42.920Z,31.88
2018-06-20T10:56:10.599Z,32.10
2018-06-20T10:59:41.901Z,31.10
2018-06-20T11:02:15.141Z,31.92
2018-06-20T11:04:48.528Z,31.38
2018-06-20T11:07:21.935Z,29.86
2018-06-20T11:09:55.165Z,29.90
2018-06-20T11:12:28.513Z,29.72
2018-06-20T11:14:56.090Z,29.77
2018-06-20T11:17:23.650Z,29.58
2018-06-20T11:19:51.234Z,30.15
2018-06-20T11:22:18.825Z,29.35
2018-06-20T11:24:46.390Z,30.15
2018-06-20T11:27:13.934Z,30.36
2018-06-20T11:29:41.494Z,29.80
2018-06-20T11:32:09.018Z,30.34
2018-06-20T11:34:36.561Z,29.71
2018-06-20T11:37:04.433Z,29.07
2018-06-20T11:39:32.068Z,28.46
2018-06-20T11:41:59.681Z,28.30
2018-06-20T11:44:27.285Z,30.29
2018-06-20T11:47:00.699Z,25.91
2018-06-20T11:49:28.258Z,26.09
2018-06-20T11:51:55.899Z,26.03
2018-06-20T11:54:23.439Z,25.45
2018-06-20T11:56:50.993Z,24.97
2018-06-20T11:59:24.383Z,23.55
2018-06-20T12:01:57.925Z,22.26
2018-06-20T12:04:31.237Z,19.87
2018-06-20T12:07:04.551Z,17.33
2018-06-20T12:09:38.017Z,15.53
2018-06-20T12:12:11.314Z,14.08
2018-06-20T12:14:44.804Z,14.28
2018-06-20T12:17:11.994Z,13.25
2018-06-20T12:19:46.296Z,14.07
2018-06-20T12:22:19.765Z,12.60
2018-06-20T12:24:53.269Z,12.74
2018-06-20T12:27:26.813Z,14.34
2018-06-20T12:30:00.056Z,16.20
2018-06-20T12:32:33.369Z,19.95
2018-06-20T12:35:06.634Z,20.69
2018-06-20T12:37:39.943Z,18.55
2018-06-20T12:40:12.120Z,15.47
2018-06-20T12:42:45.541Z,10.23
2018-06-20T12:45:16.075Z,10.38
2018-06-20T12:47:44.542Z,8.99
2018-06-20T12:50:15.980Z,12.23
2018-06-20T12:52:43.949Z,9.25
2018-06-20T12:55:11.537Z,10.02
2018-06-20T12:57:39.254Z,8.77
2018-06-20T13:00:06.883Z,9.70
2018-06-20T13:02:34.524Z,8.90
2018-06-20T13:05:02.227Z,9.13
2018-06-20T13:07:29.869Z,9.32
2018-06-20T13:09:57.494Z,8.59
2018-06-20T13:12:25.110Z,9.60
2018-06-20T13:14:52.734Z,8.26
2018-06-20T13:17:20.362Z,7.98
2018-06-20T13:19:47.956Z,8.40
2018-06-20T13:22:15.580Z,10.68
2018-06-20T13:24:43.234Z,11.14
2018-06-20T13:27:15.422Z,12.17
2018-06-20T13:29:43.012Z,14.06
2018-06-20T13:32:16.316Z,15.61
2018-06-20T13:34:49.570Z,12.22
2018-06-20T13:37:22.875Z,13.63
2018-06-20T13:39:56.409Z,14.11
2018-06-20T13:43:29.603Z,15.07
2018-06-20T13:46:03.163Z,11.29
2018-06-20T13:48:32.822Z,15.23
2018-06-20T13:51:00.421Z,16.23
2018-06-20T13:53:28.030Z,13.52
2018-06-20T13:55:55.758Z,11.01
2018-06-20T13:58:23.543Z,9.39
2018-06-20T14:00:51.195Z,11.80
2018-06-20T14:03:18.846Z,15.78
2018-06-20T14:05:46.476Z,15.16
2018-06-20T14:08:14.121Z,16.65
2018-06-20T14:10:41.731Z,15.29
2018-06-20T14:13:09.373Z,18.76
2018-06-20T14:15:37.095Z,19.57
2018-06-20T14:18:04.692Z,19.76
2018-06-20T14:20:38.056Z,18.81
2018-06-20T14:23:05.714Z,14.90
2018-06-20T14:25:33.337Z,12.14
2018-06-20T14:28:00.919Z,11.56
2018-06-20T14:30:34.353Z,10.40
2018-06-20T14:33:07.852Z,8.29
2018-06-20T14:35:41.454Z,8.10
2018-06-20T14:38:14.746Z,8.40
2018-06-20T14:40:48.044Z,8.50
2018-06-20T14:43:21.514Z,7.71
2018-06-20T14:45:54.795Z,9.33
2018-06-20T14:48:22.394Z,9.19
2018-06-20T14:50:49.981Z,9.25
2018-06-20T14:53:17.639Z,10.08
2018-06-20T14:55:45.263Z,8.77
2018-06-20T14:58:12.925Z,8.23
2018-06-20T15:00:40.513Z,6.82
2018-06-20T15:03:08.228Z,7.77
2018-06-20T15:05:35.795Z,7.96
2018-06-20T15:08:03.577Z,8.84
2018-06-20T15:10:31.207Z,8.19
2018-06-20T15:12:58.808Z,5.38
2018-06-20T15:15:26.602Z,5.27
2018-06-20T15:17:54.224Z,5.17
2018-06-20T15:20:21.860Z,5.82
2018-06-20T15:22:49.442Z,6.30
2018-06-20T15:25:25.637Z,5.74
2018-06-20T15:29:00.119Z,6.20
2018-06-20T15:31:33.492Z,6.79
2018-06-20T15:34:06.811Z,10.56
2018-06-20T15:36:40.391Z,13.65
2018-06-20T15:39:08.476Z,16.82
2018-06-20T15:41:36.217Z,18.72
2018-06-20T15:44:04.921Z,19.02
2018-06-20T15:46:32.545Z,20.17
2018-06-20T15:49:00.203Z,17.68
2018-06-20T15:51:27.839Z,14.87
2018-06-20T15:53:55.432Z,15.35
2018-06-20T15:56:23.015Z,12.49
2018-06-20T15:58:50.632Z,12.83
2018-06-20T16:01:18.222Z,10.58
2018-06-20T16:03:45.852Z,11.30
2018-06-20T16:06:13.443Z,13.34
2018-06-20T16:08:46.966Z,11.34
2018-06-20T16:11:14.540Z,9.69
2018-06-20T16:13:42.228Z,11.13
2018-06-20T16:16:10.358Z,13.63
2018-06-20T16:18:42.365Z,16.50
2018-06-20T16:21:15.661Z,17.37
2018-06-20T16:23:49.706Z,16.20
2018-06-20T16:26:23.017Z,15.78
2018-06-20T16:28:56.548Z,13.28
2018-06-20T16:31:24.180Z,15.09
2018-06-20T16:33:51.940Z,14.26
2018-06-20T16:36:19.629Z,15.98
2018-06-20T16:38:47.221Z,17.75
2018-06-20T16:41:14.841Z,19.08
2018-06-20T16:43:42.501Z,19.87
2018-06-20T16:46:10.282Z,20.62
2018-06-20T16:48:38.021Z,20.07
2018-06-20T16:51:05.681Z,20.63
2018-06-20T16:53:33.463Z,21.27
2018-06-20T16:56:01.165Z,21.45
2018-06-20T16:58:28.777Z,21.05
2018-06-20T17:01:02.759Z,20.64
2018-06-20T17:03:30.370Z,18.26
2018-06-20T17:05:57.981Z,18.29
2018-06-20T17:08:25.590Z,18.10
2018-06-20T17:10:53.230Z,18.72
2018-06-20T17:13:26.588Z,19.30
2018-06-20T17:15:59.839Z,19.94
2018-06-20T17:18:33.421Z,18.79
2018-06-20T17:21:07.156Z,20.48
2018-06-20T17:23:40.435Z,23.11
2018-06-20T17:26:08.107Z,25.98
2018-06-20T17:28:35.808Z,26.55
2018-06-20T17:31:03.463Z,26.93
2018-06-20T17:33:31.099Z,26.86
2018-06-20T17:35:58.845Z,27.21
2018-06-20T17:38:26.524Z,26.65
2018-06-20T17:40:54.161Z,26.35
2018-06-20T17:43:28.024Z,25.57
2018-06-20T17:45:55.718Z,26.19
2018-06-20T17:48:23.441Z,26.92
2018-06-20T17:50:51.058Z,28.17
2018-06-20T17:53:18.742Z,26.68
2018-06-20T17:55:46.481Z,26.88
2018-06-20T17:58:14.168Z,27.37
2018-06-20T18:00:47.620Z,27.69
2018-06-20T18:03:15.286Z,27.13
2018-06-20T18:05:48.810Z,24.76
2018-06-20T18:08:22.389Z,22.33
2018-06-20T18:10:55.830Z,20.81
2018-06-20T18:13:29.133Z,18.68
2018-06-20T18:16:02.567Z,18.84
2018-06-20T18:18:30.201Z,19.57
2018-06-20T18:20:57.841Z,23.15
2018-06-20T18:23:25.488Z,25.34
2018-06-20T18:25:53.153Z,26.71
2018-06-20T18:28:20.910Z,28.90
2018-06-20T18:30:48.625Z,30.83
2018-06-20T18:33:16.281Z,32.50
2018-06-20T18:35:43.891Z,30.80
2018-06-20T18:38:11.806Z,32.13
2018-06-20T18:40:39.516Z,33.29
2018-06-20T18:43:07.139Z,33.50
2018-06-20T18:45:34.789Z,32.89
2018-06-20T18:48:08.367Z,33.11
2018-06-20T18:50:36.615Z,33.37
2018-06-20T18:53:04.310Z,34.34
2018-06-20T18:55:31.932Z,34.29
2018-06-20T18:58:05.424Z,35.33
2018-06-20T19:00:39.016Z,35.21
2018-06-20T19:03:12.542Z,36.84
2018-06-20T19:05:45.997Z,37.20
2018-06-20T19:08:19.554Z,38.34
2018-06-20T19:10:47.257Z,38.38
2018-06-20T19:13:15.222Z,38.69
2018-06-20T19:15:43.113Z,38.60
2018-06-20T19:18:11.073Z,39.12
2018-06-20T19:20:38.771Z,39.28
2018-06-20T19:23:06.439Z,40.27
2018-06-20T19:25:34.108Z,40.10
2018-06-20T19:28:01.775Z,39.82
2018-06-20T19:30:29.459Z,40.46
2018-06-20T19:32:57.165Z,40.05
2018-06-20T19:35:24.994Z,40.80
2018-06-20T19:37:52.765Z,41.28
2018-06-20T19:40:20.358Z,41.82
2018-06-20T19:42:48.046Z,42.19
2018-06-20T19:45:15.647Z,42.18
2018-06-20T19:47:43.365Z,42.54
2018-06-20T19:50:11.000Z,42.23
2018-06-20T19:52:38.676Z,42.36
2018-06-20T19:55:06.451Z,43.19
2018-06-20T19:57:34.210Z,43.23
2018-06-20T20:00:01.852Z,43.40
2018-06-20T20:02:30.251Z,43.55
2018-06-20T20:04:57.886Z,43.54
2018-06-20T20:07:25.609Z,43.76
2018-06-20T20:09:53.552Z,43.53
2018-06-20T20:12:21.388Z,43.84
2018-06-20T20:14:49.058Z,44.07
2018-06-20T20:17:16.737Z,44.71
2018-06-20T20:19:44.405Z,44.83
2018-06-20T20:22:12.010Z,44.61
2018-06-20T20:24:39.627Z,45.21
2018-06-20T20:27:07.227Z,45.30
2018-06-20T20:29:34.898Z,44.56
2018-06-20T20:32:02.582Z,45.18
2018-06-20T20:34:30.417Z,45.11
2018-06-20T20:36:58.065Z,45.17
2018-06-20T20:39:25.846Z,44.55
2018-06-20T20:41:53.448Z,44.32
2018-06-20T20:44:21.186Z,45.17
2018-06-20T20:46:48.867Z,45.10
2018-06-20T20:49:16.636Z,45.20
2018-06-20T20:51:44.437Z,44.99
2018-06-20T20:54:12.138Z,45.33
2018-06-20T20:56:39.856Z,44.93
2018-06-20T20:59:07.590Z,44.99
2018-06-20T21:01:35.215Z,45.71
2018-06-20T21:04:02.840Z,44.88
2018-06-20T21:06:30.637Z,44.84
2018-06-20T21:08:58.315Z,45.09
2018-06-20T21:11:29.908Z,45.60
2018-06-20T21:13:57.887Z,45.36
2018-06-20T21:16:25.526Z,45.94
2018-06-20T21:18:53.490Z,46.04
2018-06-20T21:21:21.126Z,45.94
2018-06-20T21:23:48.808Z,46.00
2018-06-20T21:26:16.467Z,45.55
2018-06-20T21:28:44.129Z,45.88
2018-06-20T21:31:11.758Z,46.17
2018-06-20T21:33:39.448Z,46.04
2018-06-20T21:36:07.111Z,45.94
2018-06-20T21:38:35.032Z,46.20
2018-06-20T21:41:02.642Z,46.04
2018-06-20T21:43:30.264Z,45.88
2018-06-20T21:45:57.907Z,45.40
2018-06-20T21:48:25.572Z,46.13
2018-06-20T21:50:53.241Z,45.41
2018-06-20T21:53:20.919Z,45.41
2018-06-20T21:55:48.546Z,45.78
2018-06-20T21:58:16.235Z,45.27
2018-06-20T22:00:45.535Z,45.20
2018-06-20T22:03:13.206Z,45.79
2018-06-20T22:05:40.869Z,45.76
2018-06-20T22:08:08.516Z,45.18
2018-06-20T22:10:36.123Z,45.57
2018-06-20T22:13:03.722Z,45.57
2018-06-20T22:15:31.400Z,45.94
2018-06-20T22:17:59.094Z,45.61
2018-06-20T22:20:26.825Z,45.59
2018-06-20T22:22:54.465Z,45.63
2018-06-20T22:25:22.092Z,45.53
2018-06-20T22:27:49.753Z,45.25
2018-06-20T22:30:17.392Z,45.76
2018-06-20T22:32:45.048Z,45.92
2018-06-20T22:35:12.731Z,45.82
2018-06-20T22:37:40.377Z,45.85
2018-06-20T22:40:07.982Z,45.78
2018-06-20T22:42:35.538Z,45.81
2018-06-20T22:45:03.293Z,45.30
2018-06-20T22:47:31.188Z,45.91
2018-06-20T22:49:58.816Z,46.02
2018-06-20T22:52:26.488Z,46.02
2018-06-20T22:54:54.175Z,45.45
2018-06-20T22:57:21.806Z,45.70
2018-06-20T22:59:49.390Z,46.13
2018-06-20T23:02:17.029Z,46.06
2018-06-20T23:04:44.660Z,45.47
2018-06-20T23:07:12.460Z,45.35
2018-06-20T23:09:40.768Z,45.36
2018-06-20T23:12:08.356Z,45.88
2018-06-20T23:14:35.934Z,45.29
2018-06-20T23:17:03.630Z,45.71
2018-06-20T23:19:31.213Z,45.55
2018-06-20T23:21:58.817Z,45.52
2018-06-20T23:24:26.477Z,45.90
2018-06-20T23:26:54.067Z,45.38
2018-06-20T23:29:21.723Z,46.08
2018-06-20T23:31:49.320Z,46.08
2018-06-20T23:34:16.911Z,46.25
2018-06-20T23:36:44.540Z,46.34
2018-06-20T23:39:12.131Z,45.97
2018-06-20T23:41:39.742Z,46.82
2018-06-20T23:44:07.364Z,46.50
2018-06-20T23:46:35.056Z,47.26
2018-06-20T23:49:02.816Z,47.07
2018-06-20T23:51:30.444Z,47.63
2018-06-20T23:53:58.076Z,47.69
2018-06-20T23:56:25.670Z,48.45
2018-06-20T23:58:54.203Z,48.66
